sensor_id;sensor_type;location;lat;lon;timestamp;pressure;altitude;pressure_sealevel;temperature;humidity
44765;BME280;30484;52.382;5.260;2023-04-21T00:01:51;101757.81;;;13.45;100.00
44765;BME280;30484;52.382;5.260;2023-04-21T00:04:23;101762.44;;;13.22;100.00
44765;BME280;30484;52.382;5.260;2023-04-21T00:06:54;101757.72;;;13.27;100.00
44765;BME280;30484;52.382;5.260;2023-04-21T00:09:23;101751.28;;;13.32;100.00
44765;BME280;30484;52.382;5.260;2023-04-21T00:11:54;101745.09;;;13.10;100.00
44765;BME280;30484;52.382;5.260;2023-04-21T00:14:23;101740.34;;;13.36;100.00
44765;BME280;30484;52.382;5.260;2023-04-21T00:16:53;101738.03;;;13.48;100.00
44765;BME280;30484;52.382;5.260;2023-04-21T00:19:23;101729.31;;;13.23;100.00
44765;BME280;30484;52.382;5.260;2023-04-21T00:21:52;101727.91;;;13.34;100.00
44765;BME280;30484;52.382;5.260;2023-04-21T00:24:25;101719.06;;;13.32;100.00
44765;BME280;30484;52.382;5.260;2023-04-21T00:26:55;101714.78;;;13.27;100.00
44765;BME280;30484;52.382;5.260;2023-04-21T00:29:26;101724.00;;;13.22;100.00
44765;BME280;30484;52.382;5.260;2023-04-21T00:31:55;101712.03;;;13.29;100.00
44765;BME280;30484;52.382;5.260;2023-04-21T00:34:27;101722.13;;;13.05;100.00
44765;BME280;30484;52.382;5.260;2023-04-21T00:36:55;101707.53;;;12.91;100.00
44765;BME280;30484;52.382;5.260;2023-04-21T00:39:25;101712.31;;;13.04;100.00
44765;BME280;30484;52.382;5.260;2023-04-21T00:41:54;101700.44;;;12.90;100.00
44765;BME280;30484;52.382;5.260;2023-04-21T00:44:23;101703.50;;;13.02;100.00
44765;BME280;30484;52.382;5.260;2023-04-21T00:46:52;101708.09;;;12.98;100.00
44765;BME280;30484;52.382;5.260;2023-04-21T00:49:22;101711.44;;;13.22;100.00
44765;BME280;30484;52.382;5.260;2023-04-21T00:51:54;101698.03;;;13.22;100.00
44765;BME280;30484;52.382;5.260;2023-04-21T00:54:24;101696.28;;;12.83;100.00
44765;BME280;30484;52.382;5.260;2023-04-21T00:56:57;101696.16;;;13.05;100.00
44765;BME280;30484;52.382;5.260;2023-04-21T00:59:29;101697.84;;;13.27;100.00
44765;BME280;30484;52.382;5.260;2023-04-21T01:02:00;101688.84;;;13.09;100.00
44765;BME280;30484;52.382;5.260;2023-04-21T01:04:31;101692.75;;;13.21;100.00
44765;BME280;30484;52.382;5.260;2023-04-21T01:07:08;101693.47;;;13.24;100.00
44765;BME280;30484;52.382;5.260;2023-04-21T01:09:37;101690.50;;;13.30;100.00
44765;BME280;30484;52.382;5.260;2023-04-21T01:12:07;101699.56;;;13.28;100.00
44765;BME280;30484;52.382;5.260;2023-04-21T01:14:38;101678.75;;;13.33;100.00
44765;BME280;30484;52.382;5.260;2023-04-21T01:17:09;101694.06;;;13.12;100.00
44765;BME280;30484;52.382;5.260;2023-04-21T01:19:41;101686.22;;;13.26;100.00
44765;BME280;30484;52.382;5.260;2023-04-21T01:22:13;101684.13;;;13.14;100.00
44765;BME280;30484;52.382;5.260;2023-04-21T01:24:46;101673.03;;;13.03;100.00
44765;BME280;30484;52.382;5.260;2023-04-21T01:27:18;101668.03;;;13.14;100.00
44765;BME280;30484;52.382;5.260;2023-04-21T01:29:50;101674.50;;;13.10;100.00
44765;BME280;30484;52.382;5.260;2023-04-21T01:32:23;101670.72;;;13.14;100.00
44765;BME280;30484;52.382;5.260;2023-04-21T01:34:55;101658.59;;;13.24;100.00
44765;BME280;30484;52.382;5.260;2023-04-21T01:37:29;101659.19;;;13.12;100.00
44765;BME280;30484;52.382;5.260;2023-04-21T01:40:00;101654.31;;;13.20;100.00
44765;BME280;30484;52.382;5.260;2023-04-21T01:42:36;101666.50;;;13.27;100.00
44765;BME280;30484;52.382;5.260;2023-04-21T01:45:08;101664.03;;;13.23;100.00
44765;BME280;30484;52.382;5.260;2023-04-21T01:47:37;101666.09;;;13.37;100.00
44765;BME280;30484;52.382;5.260;2023-04-21T01:50:09;101664.38;;;13.71;100.00
44765;BME280;30484;52.382;5.260;2023-04-21T01:52:41;101668.16;;;13.67;100.00
44765;BME280;30484;52.382;5.260;2023-04-21T01:55:13;101668.03;;;13.70;100.00
44765;BME280;30484;52.382;5.260;2023-04-21T01:57:42;101660.28;;;13.63;100.00
44765;BME280;30484;52.382;5.260;2023-04-21T02:00:14;101647.16;;;13.57;100.00
44765;BME280;30484;52.382;5.260;2023-04-21T02:02:44;101643.06;;;13.68;100.00
44765;BME280;30484;52.382;5.260;2023-04-21T02:05:14;101634.69;;;13.56;100.00
44765;BME280;30484;52.382;5.260;2023-04-21T02:07:47;101628.78;;;13.67;100.00
44765;BME280;30484;52.382;5.260;2023-04-21T02:10:18;101623.16;;;13.72;100.00
44765;BME280;30484;52.382;5.260;2023-04-21T02:12:51;101625.41;;;13.81;100.00
44765;BME280;30484;52.382;5.260;2023-04-21T02:15:23;101635.50;;;13.76;100.00
44765;BME280;30484;52.382;5.260;2023-04-21T02:17:53;101632.31;;;13.68;100.00
44765;BME280;30484;52.382;5.260;2023-04-21T02:20:25;101605.19;;;13.74;100.00
44765;BME280;30484;52.382;5.260;2023-04-21T02:23:01;101609.28;;;13.81;100.00
44765;BME280;30484;52.382;5.260;2023-04-21T02:25:30;101619.72;;;13.70;100.00
44765;BME280;30484;52.382;5.260;2023-04-21T02:28:01;101618.59;;;13.74;100.00
44765;BME280;30484;52.382;5.260;2023-04-21T02:30:33;101615.84;;;13.75;100.00
44765;BME280;30484;52.382;5.260;2023-04-21T02:33:02;101614.09;;;13.74;100.00
44765;BME280;30484;52.382;5.260;2023-04-21T02:35:35;101618.03;;;13.85;100.00
44765;BME280;30484;52.382;5.260;2023-04-21T02:38:08;101622.38;;;13.87;100.00
44765;BME280;30484;52.382;5.260;2023-04-21T02:40:39;101621.19;;;13.93;100.00
44765;BME280;30484;52.382;5.260;2023-04-21T02:43:10;101618.91;;;13.85;100.00
44765;BME280;30484;52.382;5.260;2023-04-21T02:45:50;101613.59;;;13.66;100.00
44765;BME280;30484;52.382;5.260;2023-04-21T02:48:26;101616.69;;;13.58;100.00
44765;BME280;30484;52.382;5.260;2023-04-21T02:50:56;101610.38;;;13.23;100.00
44765;BME280;30484;52.382;5.260;2023-04-21T02:53:32;101617.22;;;13.65;100.00
44765;BME280;30484;52.382;5.260;2023-04-21T02:56:08;101623.75;;;13.78;100.00
44765;BME280;30484;52.382;5.260;2023-04-21T02:58:59;101606.25;;;13.52;100.00
44765;BME280;30484;52.382;5.260;2023-04-21T03:01:35;101618.09;;;13.48;100.00
44765;BME280;30484;52.382;5.260;2023-04-21T03:04:04;101626.16;;;13.29;100.00
44765;BME280;30484;52.382;5.260;2023-04-21T03:06:35;101625.19;;;13.49;100.00
44765;BME280;30484;52.382;5.260;2023-04-21T03:09:06;101618.25;;;13.26;100.00
44765;BME280;30484;52.382;5.260;2023-04-21T03:11:35;101616.56;;;13.42;100.00
44765;BME280;30484;52.382;5.260;2023-04-21T03:14:06;101614.22;;;13.54;100.00
44765;BME280;30484;52.382;5.260;2023-04-21T03:16:36;101621.00;;;13.07;100.00
44765;BME280;30484;52.382;5.260;2023-04-21T03:19:05;101631.25;;;13.16;100.00
44765;BME280;30484;52.382;5.260;2023-04-21T03:21:36;101645.47;;;12.61;100.00
44765;BME280;30484;52.382;5.260;2023-04-21T03:24:10;101656.06;;;13.02;100.00
44765;BME280;30484;52.382;5.260;2023-04-21T03:26:42;101654.94;;;12.68;100.00
44765;BME280;30484;52.382;5.260;2023-04-21T03:29:13;101655.06;;;12.86;100.00
44765;BME280;30484;52.382;5.260;2023-04-21T03:31:45;101629.44;;;13.36;100.00
44765;BME280;30484;52.382;5.260;2023-04-21T03:34:15;101636.50;;;13.38;100.00
44765;BME280;30484;52.382;5.260;2023-04-21T03:36:46;101640.94;;;13.57;100.00
44765;BME280;30484;52.382;5.260;2023-04-21T03:39:18;101629.13;;;13.42;100.00
44765;BME280;30484;52.382;5.260;2023-04-21T03:41:48;101625.22;;;13.67;100.00
44765;BME280;30484;52.382;5.260;2023-04-21T03:44:18;101616.63;;;13.77;100.00
44765;BME280;30484;52.382;5.260;2023-04-21T03:46:51;101605.97;;;13.76;100.00
44765;BME280;30484;52.382;5.260;2023-04-21T03:49:21;101604.53;;;13.69;100.00
44765;BME280;30484;52.382;5.260;2023-04-21T03:52:00;101590.78;;;13.75;100.00
44765;BME280;30484;52.382;5.260;2023-04-21T03:54:32;101599.28;;;13.48;100.00
44765;BME280;30484;52.382;5.260;2023-04-21T03:57:03;101596.41;;;13.70;100.00
44765;BME280;30484;52.382;5.260;2023-04-21T03:59:33;101605.31;;;13.71;100.00
44765;BME280;30484;52.382;5.260;2023-04-21T04:02:03;101597.72;;;13.79;100.00
44765;BME280;30484;52.382;5.260;2023-04-21T04:04:34;101606.50;;;13.65;100.00
44765;BME280;30484;52.382;5.260;2023-04-21T04:07:05;101593.94;;;13.83;100.00
44765;BME280;30484;52.382;5.260;2023-04-21T04:09:39;101609.91;;;13.51;100.00
44765;BME280;30484;52.382;5.260;2023-04-21T04:12:09;101608.09;;;13.33;100.00
44765;BME280;30484;52.382;5.260;2023-04-21T04:14:38;101592.84;;;13.33;100.00
44765;BME280;30484;52.382;5.260;2023-04-21T04:17:07;101589.53;;;13.64;100.00
44765;BME280;30484;52.382;5.260;2023-04-21T04:19:40;101580.53;;;13.66;100.00
44765;BME280;30484;52.382;5.260;2023-04-21T04:22:09;101601.16;;;13.83;100.00
44765;BME280;30484;52.382;5.260;2023-04-21T04:24:41;101599.31;;;13.83;100.00
44765;BME280;30484;52.382;5.260;2023-04-21T04:27:11;101594.59;;;13.88;100.00
44765;BME280;30484;52.382;5.260;2023-04-21T04:29:45;101598.38;;;13.84;100.00
44765;BME280;30484;52.382;5.260;2023-04-21T04:32:21;101603.59;;;13.70;100.00
44765;BME280;30484;52.382;5.260;2023-04-21T04:35:09;101595.75;;;13.65;100.00
44765;BME280;30484;52.382;5.260;2023-04-21T04:37:39;101597.72;;;13.79;100.00
44765;BME280;30484;52.382;5.260;2023-04-21T04:40:17;101582.41;;;13.63;100.00
44765;BME280;30484;52.382;5.260;2023-04-21T04:42:50;101582.19;;;13.68;100.00
44765;BME280;30484;52.382;5.260;2023-04-21T04:45:19;101580.94;;;13.75;100.00
44765;BME280;30484;52.382;5.260;2023-04-21T04:47:50;101576.81;;;13.68;100.00
44765;BME280;30484;52.382;5.260;2023-04-21T04:50:20;101587.50;;;13.70;100.00
44765;BME280;30484;52.382;5.260;2023-04-21T04:52:51;101595.84;;;13.81;100.00
44765;BME280;30484;52.382;5.260;2023-04-21T04:55:23;101593.41;;;13.59;100.00
44765;BME280;30484;52.382;5.260;2023-04-21T04:57:53;101604.28;;;13.73;100.00
44765;BME280;30484;52.382;5.260;2023-04-21T05:00:28;101615.13;;;13.54;100.00
44765;BME280;30484;52.382;5.260;2023-04-21T05:03:09;101612.19;;;13.76;100.00
44765;BME280;30484;52.382;5.260;2023-04-21T05:05:38;101607.88;;;13.74;100.00
44765;BME280;30484;52.382;5.260;2023-04-21T05:08:09;101605.22;;;13.55;100.00
44765;BME280;30484;52.382;5.260;2023-04-21T05:10:39;101598.06;;;13.73;100.00
44765;BME280;30484;52.382;5.260;2023-04-21T05:13:15;101587.69;;;13.65;100.00
44765;BME280;30484;52.382;5.260;2023-04-21T05:15:44;101609.59;;;13.57;100.00
44765;BME280;30484;52.382;5.260;2023-04-21T05:18:14;101607.22;;;13.86;100.00
44765;BME280;30484;52.382;5.260;2023-04-21T05:20:44;101600.91;;;13.87;100.00
44765;BME280;30484;52.382;5.260;2023-04-21T05:23:13;101588.50;;;13.85;100.00
44765;BME280;30484;52.382;5.260;2023-04-21T05:25:43;101590.47;;;13.63;100.00
44765;BME280;30484;52.382;5.260;2023-04-21T05:28:18;101612.09;;;13.60;100.00
44765;BME280;30484;52.382;5.260;2023-04-21T05:30:52;101601.50;;;13.21;100.00
44765;BME280;30484;52.382;5.260;2023-04-21T05:33:23;101598.09;;;13.36;100.00
44765;BME280;30484;52.382;5.260;2023-04-21T05:35:55;101599.25;;;13.67;100.00
44765;BME280;30484;52.382;5.260;2023-04-21T05:38:24;101593.38;;;13.76;100.00
44765;BME280;30484;52.382;5.260;2023-04-21T05:40:57;101600.84;;;13.71;100.00
44765;BME280;30484;52.382;5.260;2023-04-21T05:43:29;101601.06;;;13.30;100.00
44765;BME280;30484;52.382;5.260;2023-04-21T05:46:06;101590.38;;;13.65;100.00
44765;BME280;30484;52.382;5.260;2023-04-21T05:48:38;101601.75;;;13.88;100.00
44765;BME280;30484;52.382;5.260;2023-04-21T05:51:09;101611.81;;;13.84;100.00
44765;BME280;30484;52.382;5.260;2023-04-21T05:53:43;101615.97;;;13.55;100.00
44765;BME280;30484;52.382;5.260;2023-04-21T05:56:16;101601.84;;;13.32;100.00
44765;BME280;30484;52.382;5.260;2023-04-21T05:58:45;101610.34;;;13.42;100.00
44765;BME280;30484;52.382;5.260;2023-04-21T06:01:16;101609.34;;;13.44;100.00
44765;BME280;30484;52.382;5.260;2023-04-21T06:03:45;101600.56;;;13.93;100.00
44765;BME280;30484;52.382;5.260;2023-04-21T06:06:18;101613.28;;;13.37;100.00
44765;BME280;30484;52.382;5.260;2023-04-21T06:08:50;101620.25;;;13.59;100.00
44765;BME280;30484;52.382;5.260;2023-04-21T06:11:21;101621.75;;;13.47;100.00
44765;BME280;30484;52.382;5.260;2023-04-21T06:13:54;101623.66;;;13.07;100.00
44765;BME280;30484;52.382;5.260;2023-04-21T06:16:33;101611.50;;;13.55;100.00
44765;BME280;30484;52.382;5.260;2023-04-21T06:19:19;101610.84;;;14.03;100.00
44765;BME280;30484;52.382;5.260;2023-04-21T06:21:51;101619.38;;;13.58;100.00
44765;BME280;30484;52.382;5.260;2023-04-21T06:24:33;101603.31;;;14.09;100.00
44765;BME280;30484;52.382;5.260;2023-04-21T06:27:10;101612.59;;;13.69;100.00
44765;BME280;30484;52.382;5.260;2023-04-21T06:29:42;101615.59;;;13.62;100.00
44765;BME280;30484;52.382;5.260;2023-04-21T06:32:15;101612.50;;;13.53;100.00
44765;BME280;30484;52.382;5.260;2023-04-21T06:34:46;101598.22;;;13.87;100.00
44765;BME280;30484;52.382;5.260;2023-04-21T06:37:15;101601.97;;;14.01;100.00
44765;BME280;30484;52.382;5.260;2023-04-21T06:39:45;101597.25;;;14.06;100.00
44765;BME280;30484;52.382;5.260;2023-04-21T06:42:34;101598.34;;;14.02;100.00
44765;BME280;30484;52.382;5.260;2023-04-21T06:45:10;101598.13;;;13.89;100.00
44765;BME280;30484;52.382;5.260;2023-04-21T06:47:50;101592.13;;;13.66;100.00
44765;BME280;30484;52.382;5.260;2023-04-21T06:50:26;101614.31;;;13.87;100.00
44765;BME280;30484;52.382;5.260;2023-04-21T06:52:56;101615.34;;;14.02;100.00
44765;BME280;30484;52.382;5.260;2023-04-21T06:55:26;101599.88;;;14.23;100.00
44765;BME280;30484;52.382;5.260;2023-04-21T06:57:57;101602.41;;;14.26;100.00
44765;BME280;30484;52.382;5.260;2023-04-21T07:00:27;101608.63;;;13.93;100.00
44765;BME280;30484;52.382;5.260;2023-04-21T07:02:56;101596.00;;;13.78;100.00
44765;BME280;30484;52.382;5.260;2023-04-21T07:05:33;101586.78;;;14.17;100.00
44765;BME280;30484;52.382;5.260;2023-04-21T07:08:05;101602.41;;;14.26;100.00
44765;BME280;30484;52.382;5.260;2023-04-21T07:11:06;101602.91;;;14.68;100.00
44765;BME280;30484;52.382;5.260;2023-04-21T07:13:41;101587.63;;;14.69;100.00
44765;BME280;30484;52.382;5.260;2023-04-21T07:16:11;101579.50;;;14.19;100.00
44765;BME280;30484;52.382;5.260;2023-04-21T07:18:52;101582.66;;;14.27;100.00
44765;BME280;30484;52.382;5.260;2023-04-21T07:21:24;101599.63;;;14.28;100.00
44765;BME280;30484;52.382;5.260;2023-04-21T07:24:10;101595.53;;;14.38;100.00
44765;BME280;30484;52.382;5.260;2023-04-21T07:27:08;101591.09;;;13.86;100.00
44765;BME280;30484;52.382;5.260;2023-04-21T07:30:20;101585.88;;;14.34;100.00
44765;BME280;30484;52.382;5.260;2023-04-21T07:32:58;101599.41;;;14.82;100.00
44765;BME280;30484;52.382;5.260;2023-04-21T07:35:29;101593.72;;;14.88;100.00
44765;BME280;30484;52.382;5.260;2023-04-21T07:37:58;101600.97;;;14.70;100.00
44765;BME280;30484;52.382;5.260;2023-04-21T07:40:27;101593.59;;;14.40;100.00
44765;BME280;30484;52.382;5.260;2023-04-21T07:43:02;101604.97;;;14.79;100.00
44765;BME280;30484;52.382;5.260;2023-04-21T07:45:33;101600.28;;;14.66;100.00
44765;BME280;30484;52.382;5.260;2023-04-21T07:48:04;101598.16;;;15.35;100.00
44765;BME280;30484;52.382;5.260;2023-04-21T07:50:39;101598.06;;;15.37;100.00
44765;BME280;30484;52.382;5.260;2023-04-21T07:53:10;101594.34;;;15.70;100.00
44765;BME280;30484;52.382;5.260;2023-04-21T07:55:46;101595.28;;;15.69;100.00
44765;BME280;30484;52.382;5.260;2023-04-21T07:58:19;101601.97;;;15.47;100.00
44765;BME280;30484;52.382;5.260;2023-04-21T08:00:52;101604.06;;;15.73;100.00
44765;BME280;30484;52.382;5.260;2023-04-21T08:03:27;101590.41;;;15.76;100.00
44765;BME280;30484;52.382;5.260;2023-04-21T08:06:21;101595.13;;;16.17;100.00
44765;BME280;30484;52.382;5.260;2023-04-21T08:08:53;101598.22;;;16.39;100.00
44765;BME280;30484;52.382;5.260;2023-04-21T08:11:23;101595.13;;;16.17;100.00
44765;BME280;30484;52.382;5.260;2023-04-21T08:13:52;101591.50;;;15.57;100.00
44765;BME280;30484;52.382;5.260;2023-04-21T08:16:23;101600.81;;;15.21;100.00
44765;BME280;30484;52.382;5.260;2023-04-21T08:18:53;101602.22;;;15.89;100.00
44765;BME280;30484;52.382;5.260;2023-04-21T08:21:23;101598.97;;;16.13;100.00
44765;BME280;30484;52.382;5.260;2023-04-21T08:23:57;101598.94;;;15.84;100.00
44765;BME280;30484;52.382;5.260;2023-04-21T08:26:26;101600.09;;;15.33;100.00
44765;BME280;30484;52.382;5.260;2023-04-21T08:28:56;101604.13;;;14.78;100.00
44765;BME280;30484;52.382;5.260;2023-04-21T08:31:29;101606.72;;;15.58;100.00
44765;BME280;30484;52.382;5.260;2023-04-21T08:34:01;101610.47;;;15.56;100.00
44765;BME280;30484;52.382;5.260;2023-04-21T08:36:33;101605.91;;;16.02;100.00
44765;BME280;30484;52.382;5.260;2023-04-21T08:39:04;101595.97;;;15.88;100.00
44765;BME280;30484;52.382;5.260;2023-04-21T08:41:33;101613.47;;;15.03;100.00
44765;BME280;30484;52.382;5.260;2023-04-21T08:44:03;101610.00;;;15.17;100.00
44765;BME280;30484;52.382;5.260;2023-04-21T08:46:34;101608.38;;;15.45;100.00
44765;BME280;30484;52.382;5.260;2023-04-21T08:49:09;101617.88;;;15.52;100.00
44765;BME280;30484;52.382;5.260;2023-04-21T08:51:42;101610.34;;;16.03;100.00
44765;BME280;30484;52.382;5.260;2023-04-21T08:54:12;101605.69;;;15.91;100.00
44765;BME280;30484;52.382;5.260;2023-04-21T08:56:56;101607.81;;;15.70;100.00
44765;BME280;30484;52.382;5.260;2023-04-21T08:59:40;101607.00;;;15.38;100.00
44765;BME280;30484;52.382;5.260;2023-04-21T09:02:14;101611.84;;;15.93;100.00
44765;BME280;30484;52.382;5.260;2023-04-21T09:04:48;101603.22;;;16.31;100.00
44765;BME280;30484;52.382;5.260;2023-04-21T09:07:33;101609.22;;;15.61;100.00
44765;BME280;30484;52.382;5.260;2023-04-21T09:10:06;101614.22;;;16.28;100.00
44765;BME280;30484;52.382;5.260;2023-04-21T09:12:50;101609.94;;;15.65;100.00
44765;BME280;30484;52.382;5.260;2023-04-21T09:15:24;101615.69;;;15.43;100.00
44765;BME280;30484;52.382;5.260;2023-04-21T09:17:59;101612.91;;;15.44;100.00
44765;BME280;30484;52.382;5.260;2023-04-21T09:20:30;101616.97;;;15.51;100.00
44765;BME280;30484;52.382;5.260;2023-04-21T09:23:05;101612.16;;;15.42;100.00
44765;BME280;30484;52.382;5.260;2023-04-21T09:25:39;101604.47;;;15.04;100.00
44765;BME280;30484;52.382;5.260;2023-04-21T09:28:13;101600.19;;;15.62;100.00
44765;BME280;30484;52.382;5.260;2023-04-21T09:30:43;101589.19;;;16.26;100.00
44765;BME280;30484;52.382;5.260;2023-04-21T09:33:18;101597.59;;;15.91;100.00
44765;BME280;30484;52.382;5.260;2023-04-21T09:36:00;101593.16;;;15.29;100.00
44765;BME280;30484;52.382;5.260;2023-04-21T09:38:32;101587.59;;;15.63;100.00
44765;BME280;30484;52.382;5.260;2023-04-21T09:41:02;101600.72;;;16.14;100.00
44765;BME280;30484;52.382;5.260;2023-04-21T09:43:32;101605.72;;;16.20;100.00
44765;BME280;30484;52.382;5.260;2023-04-21T09:46:05;101597.19;;;15.83;100.00
44765;BME280;30484;52.382;5.260;2023-04-21T09:48:43;101596.47;;;16.67;100.00
44765;BME280;30484;52.382;5.260;2023-04-21T09:51:13;101586.28;;;16.44;100.00
44765;BME280;30484;52.382;5.260;2023-04-21T09:53:48;101588.69;;;17.19;100.00
44765;BME280;30484;52.382;5.260;2023-04-21T09:56:24;101583.84;;;16.68;100.00
44765;BME280;30484;52.382;5.260;2023-04-21T09:58:57;101587.09;;;16.73;100.00
44765;BME280;30484;52.382;5.260;2023-04-21T10:01:29;101588.06;;;17.28;100.00
44765;BME280;30484;52.382;5.260;2023-04-21T10:04:04;101579.47;;;16.94;100.00
44765;BME280;30484;52.382;5.260;2023-04-21T10:06:35;101583.88;;;17.10;100.00
44765;BME280;30484;52.382;5.260;2023-04-21T10:09:09;101581.84;;;16.28;100.00
44765;BME280;30484;52.382;5.260;2023-04-21T10:11:45;101582.38;;;16.77;100.00
44765;BME280;30484;52.382;5.260;2023-04-21T10:14:16;101570.75;;;17.18;100.00
44765;BME280;30484;52.382;5.260;2023-04-21T10:17:10;101556.44;;;17.96;100.00
44765;BME280;30484;52.382;5.260;2023-04-21T10:19:55;101558.19;;;18.10;100.00
44765;BME280;30484;52.382;5.260;2023-04-21T10:22:27;101561.06;;;17.01;100.00
44765;BME280;30484;52.382;5.260;2023-04-21T10:24:59;101566.91;;;17.35;100.00
44765;BME280;30484;52.382;5.260;2023-04-21T10:27:34;101574.91;;;17.36;100.00
44765;BME280;30484;52.382;5.260;2023-04-21T10:30:22;101573.53;;;17.16;100.00
44765;BME280;30484;52.382;5.260;2023-04-21T10:33:02;101581.53;;;16.47;100.00
44765;BME280;30484;52.382;5.260;2023-04-21T10:36:01;101586.25;;;16.72;100.00
44765;BME280;30484;52.382;5.260;2023-04-21T10:38:35;101575.44;;;16.72;100.00
44765;BME280;30484;52.382;5.260;2023-04-21T10:41:26;101559.06;;;16.90;100.00
44765;BME280;30484;52.382;5.260;2023-04-21T10:43:57;101555.47;;;17.97;100.00
44765;BME280;30484;52.382;5.260;2023-04-21T10:46:36;101551.41;;;17.64;100.00
44765;BME280;30484;52.382;5.260;2023-04-21T10:49:11;101549.22;;;17.43;100.00
44765;BME280;30484;52.382;5.260;2023-04-21T10:52:08;101558.34;;;17.81;100.00
44765;BME280;30484;52.382;5.260;2023-04-21T10:54:42;101550.78;;;17.73;100.00
44765;BME280;30484;52.382;5.260;2023-04-21T10:57:15;101543.00;;;17.82;100.00
44765;BME280;30484;52.382;5.260;2023-04-21T10:59:46;101545.75;;;18.07;100.00
44765;BME280;30484;52.382;5.260;2023-04-21T11:02:18;101539.38;;;17.42;100.00
44765;BME280;30484;52.382;5.260;2023-04-21T11:04:52;101538.25;;;17.98;100.00
44765;BME280;30484;52.382;5.260;2023-04-21T11:07:25;101532.72;;;18.75;100.00
44765;BME280;30484;52.382;5.260;2023-04-21T11:09:59;101533.59;;;18.76;100.00
44765;BME280;30484;52.382;5.260;2023-04-21T11:12:38;101518.13;;;18.15;100.00
44765;BME280;30484;52.382;5.260;2023-04-21T11:15:13;101514.78;;;17.73;100.00
44765;BME280;30484;52.382;5.260;2023-04-21T11:17:45;101515.97;;;17.82;100.00
44765;BME280;30484;52.382;5.260;2023-04-21T11:20:15;101515.47;;;18.52;100.00
44765;BME280;30484;52.382;5.260;2023-04-21T11:22:45;101504.97;;;18.85;100.00
44765;BME280;30484;52.382;5.260;2023-04-21T11:25:21;101510.63;;;18.82;100.00
44765;BME280;30484;52.382;5.260;2023-04-21T11:27:54;101508.03;;;18.43;100.00
44765;BME280;30484;52.382;5.260;2023-04-21T11:30:36;101502.75;;;19.03;100.00
44765;BME280;30484;52.382;5.260;2023-04-21T11:33:06;101500.94;;;18.66;100.00
44765;BME280;30484;52.382;5.260;2023-04-21T11:35:40;101499.16;;;19.02;100.00
44765;BME280;30484;52.382;5.260;2023-04-21T11:38:16;101500.97;;;18.53;100.00
44765;BME280;30484;52.382;5.260;2023-04-21T11:40:47;101492.06;;;19.12;100.00
44765;BME280;30484;52.382;5.260;2023-04-21T11:43:16;101492.06;;;19.48;100.00
44765;BME280;30484;52.382;5.260;2023-04-21T11:45:51;101491.28;;;19.35;100.00
44765;BME280;30484;52.382;5.260;2023-04-21T11:48:29;101493.41;;;19.42;100.00
44765;BME280;30484;52.382;5.260;2023-04-21T11:51:03;101490.47;;;19.45;100.00
44765;BME280;30484;52.382;5.260;2023-04-21T11:53:36;101483.34;;;19.56;100.00
44765;BME280;30484;52.382;5.260;2023-04-21T11:56:08;101479.91;;;19.65;100.00
44765;BME280;30484;52.382;5.260;2023-04-21T11:58:42;101470.06;;;19.17;100.00
44765;BME280;30484;52.382;5.260;2023-04-21T12:01:16;101469.56;;;19.70;100.00
44765;BME280;30484;52.382;5.260;2023-04-21T12:03:54;101473.25;;;20.60;100.00
44765;BME280;30484;52.382;5.260;2023-04-21T12:06:25;101467.47;;;20.42;100.00
44765;BME280;30484;52.382;5.260;2023-04-21T12:09:00;101470.31;;;19.14;100.00
44765;BME280;30484;52.382;5.260;2023-04-21T12:11:33;101466.91;;;19.93;100.00
44765;BME280;30484;52.382;5.260;2023-04-21T12:14:03;101467.59;;;19.72;100.00
44765;BME280;30484;52.382;5.260;2023-04-21T12:16:36;101456.75;;;20.40;100.00
44765;BME280;30484;52.382;5.260;2023-04-21T12:19:06;101441.16;;;20.53;100.00
44765;BME280;30484;52.382;5.260;2023-04-21T12:21:36;101447.44;;;20.77;100.00
44765;BME280;30484;52.382;5.260;2023-04-21T12:24:08;101439.03;;;20.80;100.00
44765;BME280;30484;52.382;5.260;2023-04-21T12:26:50;101432.97;;;20.76;100.00
44765;BME280;30484;52.382;5.260;2023-04-21T12:29:19;101429.16;;;20.24;100.00
44765;BME280;30484;52.382;5.260;2023-04-21T12:31:52;101433.75;;;20.67;100.00
44765;BME280;30484;52.382;5.260;2023-04-21T12:34:22;101430.03;;;21.00;100.00
44765;BME280;30484;52.382;5.260;2023-04-21T12:36:52;101418.22;;;20.46;100.00
44765;BME280;30484;52.382;5.260;2023-04-21T12:39:26;101423.97;;;20.09;100.00
44765;BME280;30484;52.382;5.260;2023-04-21T12:41:56;101424.19;;;20.40;100.00
44765;BME280;30484;52.382;5.260;2023-04-21T12:44:29;101433.38;;;20.05;100.00
44765;BME280;30484;52.382;5.260;2023-04-21T12:46:58;101425.00;;;19.86;100.00
44765;BME280;30484;52.382;5.260;2023-04-21T12:49:36;101418.44;;;21.41;100.00
44765;BME280;30484;52.382;5.260;2023-04-21T12:52:07;101405.84;;;22.01;100.00
44765;BME280;30484;52.382;5.260;2023-04-21T12:54:39;101405.78;;;20.88;100.00
44765;BME280;30484;52.382;5.260;2023-04-21T12:57:20;101410.94;;;20.69;100.00
44765;BME280;30484;52.382;5.260;2023-04-21T12:59:52;101401.53;;;21.16;100.00
44765;BME280;30484;52.382;5.260;2023-04-21T13:02:23;101396.31;;;21.76;100.00
44765;BME280;30484;52.382;5.260;2023-04-21T13:04:54;101394.59;;;21.75;100.00
44765;BME280;30484;52.382;5.260;2023-04-21T13:07:25;101382.84;;;21.65;100.00
44765;BME280;30484;52.382;5.260;2023-04-21T13:10:11;101387.88;;;21.27;100.00
44765;BME280;30484;52.382;5.260;2023-04-21T13:12:40;101389.41;;;20.99;100.00